createdAt,value
2023-05-01T00:01:01.079Z,9.23
2023-05-01T00:03:09.244Z,7.65
2023-05-01T00:05:16.873Z,9.93
2023-05-01T00:07:22.630Z,9.27
2023-05-01T00:09:30.097Z,8.98
2023-05-01T00:11:35.128Z,9.40
2023-05-01T00:13:40.378Z,8.10
2023-05-01T00:15:45.303Z,11.07
2023-05-01T00:17:51.162Z,7.88
2023-05-01T00:19:56.745Z,10.57
2023-05-01T00:22:04.459Z,7.88
2023-05-01T00:24:09.817Z,9.40
2023-05-01T00:26:14.720Z,8.63
2023-05-01T00:28:23.535Z,8.52
2023-05-01T00:30:31.562Z,9.10
2023-05-01T00:32:39.544Z,8.77
2023-05-01T00:34:46.325Z,8.25
2023-05-01T00:36:52.215Z,8.82
2023-05-01T00:38:59.798Z,9.07
2023-05-01T00:41:04.835Z,8.32
2023-05-01T00:43:09.759Z,9.48
2023-05-01T00:45:15.712Z,9.80
2023-05-01T00:47:21.190Z,8.57
2023-05-01T00:49:26.283Z,9.40
2023-05-01T00:51:36.059Z,10.48
2023-05-01T00:53:44.441Z,8.55
2023-05-01T00:55:52.854Z,9.73
2023-05-01T00:57:59.451Z,11.15
2023-05-01T01:00:05.687Z,8.40
2023-05-01T01:02:12.754Z,10.35
2023-05-01T01:04:17.723Z,7.50
2023-05-01T01:06:35.340Z,12.07
2023-05-01T01:08:45.454Z,8.45
2023-05-01T01:10:57.434Z,8.38
2023-05-01T01:13:11.330Z,9.50
2023-05-01T01:15:24.543Z,8.55
2023-05-01T01:17:35.857Z,7.85
2023-05-01T01:20:19.019Z,8.85
2023-05-01T01:22:27.537Z,8.83
2023-05-01T01:25:26.530Z,7.93
2023-05-01T01:27:49.484Z,8.95
2023-05-01T01:30:30.468Z,7.75
2023-05-01T01:33:01.601Z,7.47
2023-05-01T01:35:13.779Z,8.43
2023-05-01T01:37:24.240Z,7.88
2023-05-01T01:39:37.080Z,8.23
2023-05-01T01:41:43.243Z,7.03
2023-05-01T01:43:53.595Z,8.43
2023-05-01T01:46:06.453Z,9.13
2023-05-01T01:48:14.516Z,7.80
2023-05-01T01:50:25.808Z,9.73
2023-05-01T01:52:34.232Z,7.15
2023-05-01T01:54:43.760Z,8.45
2023-05-01T01:56:52.053Z,10.35
2023-05-01T01:58:57.290Z,7.57
2023-05-01T02:01:02.841Z,9.65
2023-05-01T02:03:09.324Z,9.15
2023-05-01T02:05:17.811Z,8.90
2023-05-01T02:07:27.046Z,9.20
2023-05-01T02:09:36.579Z,7.72
2023-05-01T02:11:43.971Z,7.50
2023-05-01T02:13:49.310Z,7.68
2023-05-01T02:15:55.552Z,8.88
2023-05-01T02:18:01.289Z,7.88
2023-05-01T02:20:08.054Z,7.70
2023-05-01T02:22:14.874Z,9.07
2023-05-01T02:24:25.147Z,9.15
2023-05-01T02:26:32.889Z,7.70
2023-05-01T02:28:41.647Z,7.93
2023-05-01T02:30:47.457Z,9.90
2023-05-01T02:32:52.500Z,9.40
2023-05-01T02:34:57.724Z,11.43
2023-05-01T02:37:02.878Z,10.88
2023-05-01T02:39:08.737Z,8.60
2023-05-01T02:41:19.337Z,7.45
2023-05-01T02:43:26.493Z,10.13
2023-05-01T02:45:33.395Z,8.55
2023-05-01T02:47:44.319Z,9.02
2023-05-01T02:49:50.452Z,7.25
2023-05-01T02:51:57.906Z,8.15
2023-05-01T02:54:03.569Z,7.70
2023-05-01T02:56:09.102Z,8.45
2023-05-01T02:58:21.199Z,8.43
2023-05-01T03:00:26.153Z,8.60
2023-05-01T03:02:31.151Z,6.60
2023-05-01T03:04:36.636Z,8.45
2023-05-01T03:06:41.791Z,8.85
2023-05-01T03:08:53.629Z,10.55
2023-05-01T03:10:58.633Z,10.48
2023-05-01T03:13:04.092Z,9.00
2023-05-01T03:15:13.454Z,8.40
2023-05-01T03:17:18.777Z,7.35
2023-05-01T03:19:23.806Z,7.20
2023-05-01T03:21:29.054Z,7.75
2023-05-01T03:23:35.503Z,9.02
2023-05-01T03:25:40.831Z,9.95
2023-05-01T03:27:46.093Z,9.45
2023-05-01T03:29:51.221Z,9.30
2023-05-01T03:31:59.458Z,9.77
2023-05-01T03:34:04.969Z,8.38
2023-05-01T03:36:11.692Z,8.07
2023-05-01T03:38:16.889Z,8.38
2023-05-01T03:40:25.791Z,9.27
2023-05-01T03:42:30.851Z,8.70
2023-05-01T03:44:35.948Z,8.23
2023-05-01T03:46:44.761Z,8.13
2023-05-01T03:48:52.469Z,7.40
2023-05-01T03:50:58.212Z,9.48
2023-05-01T03:53:03.357Z,7.70
2023-05-01T03:55:10.155Z,7.75
2023-05-01T03:57:15.171Z,10.07
2023-05-01T03:59:20.808Z,8.35
2023-05-01T04:01:26.632Z,8.85
2023-05-01T04:03:31.605Z,10.00
2023-05-01T04:05:39.487Z,9.55
2023-05-01T04:07:44.804Z,7.90
2023-05-01T04:09:49.952Z,11.90
2023-05-01T04:11:55.911Z,8.20
2023-05-01T04:14:00.934Z,8.05
2023-05-01T04:16:06.602Z,8.00
2023-05-01T04:18:11.943Z,12.95
2023-05-01T04:20:19.610Z,14.68
2023-05-01T04:22:27.614Z,9.05
2023-05-01T04:24:32.656Z,8.43
2023-05-01T04:26:39.531Z,8.35
2023-05-01T04:28:44.588Z,8.10
2023-05-01T04:30:49.721Z,12.00
2023-05-01T04:32:56.400Z,8.27
2023-05-01T04:35:01.782Z,9.45
2023-05-01T04:37:09.308Z,8.02
2023-05-01T04:39:17.304Z,9.15
2023-05-01T04:41:22.613Z,8.73
2023-05-01T04:43:27.642Z,9.18
2023-05-01T04:45:32.699Z,11.57
2023-05-01T04:47:42.930Z,8.73
2023-05-01T04:49:47.959Z,9.38
2023-05-01T04:51:53.332Z,7.38
2023-05-01T04:53:58.550Z,9.63
2023-05-01T04:56:06.466Z,8.20
2023-05-01T04:58:11.416Z,7.10
2023-05-01T05:00:19.319Z,8.38
2023-05-01T05:02:24.659Z,7.35
2023-05-01T05:04:29.762Z,8.65
2023-05-01T05:06:36.805Z,8.77
2023-05-01T05:08:41.739Z,10.48
2023-05-01T05:10:46.879Z,8.13
2023-05-01T05:12:54.476Z,9.23
2023-05-01T05:14:59.916Z,7.55
2023-05-01T05:17:05.162Z,7.72
2023-05-01T05:19:10.122Z,7.38
2023-05-01T05:21:15.092Z,8.07
2023-05-01T05:23:20.210Z,9.35
2023-05-01T05:25:27.409Z,7.63
2023-05-01T05:27:36.584Z,8.90
2023-05-01T05:29:45.029Z,9.75
2023-05-01T05:31:50.858Z,7.28
2023-05-01T05:33:56.337Z,9.93
2023-05-01T05:36:02.485Z,11.25
2023-05-01T05:38:07.599Z,8.30
2023-05-01T05:40:13.701Z,7.55
2023-05-01T05:42:20.818Z,9.18
2023-05-01T05:44:26.407Z,9.30
2023-05-01T05:46:34.387Z,7.78
2023-05-01T05:48:39.338Z,10.68
2023-05-01T05:50:44.481Z,11.90
2023-05-01T05:52:49.402Z,10.77
2023-05-01T05:54:54.378Z,11.70
2023-05-01T05:56:59.374Z,11.43
2023-05-01T05:59:06.684Z,11.10
2023-05-01T06:01:12.066Z,9.05
2023-05-01T06:03:19.864Z,9.10
2023-05-01T06:05:26.098Z,11.30
2023-05-01T06:07:31.303Z,8.73
2023-05-01T06:09:36.876Z,8.95
2023-05-01T06:11:42.010Z,10.77
2023-05-01T06:13:47.082Z,10.63
2023-05-01T06:15:54.186Z,10.30
2023-05-01T06:17:59.965Z,10.35
2023-05-01T06:20:12.018Z,9.15
2023-05-01T06:22:16.976Z,11.25
2023-05-01T06:24:26.111Z,11.75
2023-05-01T06:26:31.712Z,8.23
2023-05-01T06:28:36.903Z,10.63
2023-05-01T06:30:41.991Z,9.55
2023-05-01T06:32:47.365Z,10.98
2023-05-01T06:34:52.678Z,12.15
2023-05-01T06:37:00.349Z,12.68
2023-05-01T06:39:06.017Z,9.82
2023-05-01T06:41:11.234Z,12.50
2023-05-01T06:43:16.332Z,10.55
2023-05-01T06:45:27.460Z,9.18
2023-05-01T06:47:32.677Z,9.30
2023-05-01T06:49:41.130Z,9.80
2023-05-01T06:51:46.323Z,13.30
2023-05-01T06:53:54.253Z,9.75
2023-05-01T06:55:59.291Z,11.02
2023-05-01T06:58:12.605Z,8.07
2023-05-01T07:00:28.016Z,11.70
2023-05-01T07:02:33.235Z,8.05
2023-05-01T07:04:39.673Z,10.38
2023-05-01T07:06:44.728Z,8.88
2023-05-01T07:08:49.845Z,10.07
2023-05-01T07:10:57.830Z,12.48
2023-05-01T07:13:04.947Z,10.07
2023-05-01T07:15:11.198Z,11.02
2023-05-01T07:17:16.469Z,10.90
2023-05-01T07:19:24.670Z,10.25
2023-05-01T07:21:29.811Z,12.70
2023-05-01T07:23:34.848Z,9.57
2023-05-01T07:25:41.596Z,11.63
2023-05-01T07:27:49.292Z,10.18
2023-05-01T07:29:56.332Z,12.27
2023-05-01T07:32:01.952Z,11.43
2023-05-01T07:34:07.348Z,9.63
2023-05-01T07:36:13.423Z,11.15
2023-05-01T07:38:19.280Z,11.25
2023-05-01T07:40:24.592Z,10.70
2023-05-01T07:42:31.128Z,10.45
2023-05-01T07:44:41.054Z,9.48
2023-05-01T07:46:46.121Z,8.88
2023-05-01T07:48:54.435Z,11.35
2023-05-01T07:50:59.763Z,12.32
2023-05-01T07:53:04.955Z,11.65
2023-05-01T07:55:11.879Z,10.07
2023-05-01T07:57:18.128Z,13.45
2023-05-01T07:59:24.113Z,11.50
2023-05-01T08:01:32.112Z,9.43
2023-05-01T08:03:37.463Z,12.95
2023-05-01T08:05:44.370Z,11.35
2023-05-01T08:07:49.499Z,11.98
2023-05-01T08:09:56.419Z,11.85
2023-05-01T08:12:04.133Z,12.02
2023-05-01T08:14:09.516Z,13.15
2023-05-01T08:16:14.807Z,10.45
2023-05-01T08:18:22.848Z,9.43
2023-05-01T08:20:28.273Z,11.45
2023-05-01T08:22:33.590Z,10.63
2023-05-01T08:24:39.945Z,10.75
2023-05-01T08:26:45.221Z,10.52
2023-05-01T08:28:51.897Z,10.32
2023-05-01T08:30:57.174Z,11.20
2023-05-01T08:33:02.258Z,13.93
2023-05-01T08:35:11.145Z,12.10
2023-05-01T08:37:16.566Z,14.75
2023-05-01T08:39:22.616Z,9.43
2023-05-01T08:41:31.686Z,11.57
2023-05-01T08:43:36.952Z,13.32
2023-05-01T08:45:43.042Z,14.35
2023-05-01T08:47:49.772Z,10.77
2023-05-01T08:49:56.509Z,17.08
2023-05-01T08:52:08.474Z,16.27
2023-05-01T08:54:15.828Z,12.63
2023-05-01T08:56:24.445Z,12.15
2023-05-01T08:58:31.112Z,8.75
2023-05-01T09:00:41.394Z,11.80
2023-05-01T09:02:47.464Z,12.23
2023-05-01T09:04:56.860Z,13.60
2023-05-01T09:07:05.098Z,13.38
2023-05-01T09:09:10.208Z,13.10
2023-05-01T09:11:15.428Z,12.82
2023-05-01T09:13:21.357Z,14.70
2023-05-01T09:15:29.004Z,13.30
2023-05-01T09:17:37.141Z,13.95
2023-05-01T09:19:42.249Z,13.02
2023-05-01T09:21:48.052Z,12.68
2023-05-01T09:23:57.230Z,11.98
2023-05-01T09:26:07.656Z,14.23
2023-05-01T09:28:12.994Z,12.70
2023-05-01T09:30:34.101Z,13.80
2023-05-01T09:32:42.809Z,14.25
2023-05-01T09:34:48.475Z,14.55
2023-05-01T09:36:54.932Z,13.27
2023-05-01T09:39:03.739Z,13.10
2023-05-01T09:41:09.208Z,11.80
2023-05-01T09:43:14.405Z,14.15
2023-05-01T09:45:28.291Z,13.73
2023-05-01T09:47:34.616Z,12.40
2023-05-01T09:49:50.697Z,13.20
2023-05-01T09:51:57.332Z,11.73
2023-05-01T09:54:07.647Z,16.52
2023-05-01T09:56:14.929Z,15.27
2023-05-01T09:58:32.994Z,12.32
2023-05-01T10:00:52.967Z,13.88
2023-05-01T10:03:00.716Z,19.80
2023-05-01T10:05:16.034Z,17.70
2023-05-01T10:10:23.117Z,15.27
2023-05-01T10:12:33.584Z,15.20
2023-05-01T10:14:55.134Z,19.42
2023-05-01T10:17:06.054Z,16.98
2023-05-01T10:19:23.615Z,12.40
2023-05-01T10:21:30.485Z,14.20
2023-05-01T10:23:37.529Z,14.35
2023-05-01T10:25:49.857Z,13.35
2023-05-01T10:27:58.016Z,17.13
2023-05-01T10:30:16.724Z,13.80
2023-05-01T10:32:38.204Z,14.05
2023-05-01T10:34:48.784Z,16.05
2023-05-01T10:37:00.973Z,16.25
2023-05-01T10:39:06.635Z,17.57
2023-05-01T10:41:14.729Z,17.50
2023-05-01T10:43:26.070Z,14.32
2023-05-01T10:45:33.841Z,16.55
2023-05-01T10:47:49.100Z,15.55
2023-05-01T10:50:07.805Z,15.77
2023-05-01T10:52:13.342Z,17.92
2023-05-01T10:54:29.381Z,16.75
2023-05-01T10:56:47.215Z,16.98
2023-05-01T10:59:04.840Z,15.82
2023-05-01T11:01:32.164Z,16.55
2023-05-01T11:03:42.798Z,15.30
2023-05-01T11:06:09.469Z,14.85
2023-05-01T11:08:32.358Z,16.08
2023-05-01T11:10:38.292Z,16.52
2023-05-01T11:12:57.248Z,16.73
2023-05-01T11:15:09.981Z,16.67
2023-05-01T11:17:18.065Z,20.30
2023-05-01T11:19:53.366Z,18.13
2023-05-01T11:21:59.100Z,16.00
2023-05-01T11:24:08.248Z,14.25
2023-05-01T11:26:14.176Z,14.43
2023-05-01T11:28:27.171Z,16.45
2023-05-01T11:30:43.388Z,17.00
2023-05-01T11:32:50.201Z,16.55
2023-05-01T11:34:56.386Z,18.13
2023-05-01T11:37:01.917Z,15.18
2023-05-01T11:39:07.123Z,17.98
2023-05-01T11:41:12.035Z,15.88
2023-05-01T11:43:17.056Z,17.02
2023-05-01T11:45:26.371Z,18.05
2023-05-01T11:47:36.775Z,20.88
2023-05-01T11:49:42.196Z,19.25
2023-05-01T11:51:59.854Z,17.67
2023-05-01T11:54:09.906Z,15.60
2023-05-01T11:56:27.158Z,20.15
2023-05-01T11:58:38.000Z,15.48
2023-05-01T12:00:47.528Z,22.48
2023-05-01T12:03:00.580Z,22.45
2023-05-01T12:07:26.651Z,22.83
2023-05-01T12:09:32.588Z,19.92
2023-05-01T12:11:38.446Z,15.65
2023-05-01T12:13:44.302Z,16.83
2023-05-01T12:15:54.494Z,16.33
2023-05-01T12:18:00.341Z,16.98
2023-05-01T12:20:07.614Z,17.45
2023-05-01T12:22:12.727Z,15.05
2023-05-01T12:24:19.118Z,15.95
2023-05-01T12:26:25.959Z,15.27
2023-05-01T12:28:32.125Z,17.10
2023-05-01T12:30:38.121Z,17.55
2023-05-01T12:32:45.806Z,14.23
2023-05-01T12:34:51.221Z,17.70
2023-05-01T12:36:57.677Z,13.65
2023-05-01T12:39:06.036Z,12.48
2023-05-01T12:41:13.594Z,14.25
2023-05-01T12:43:19.339Z,14.63
2023-05-01T12:45:24.873Z,13.40
2023-05-01T12:47:30.694Z,17.65
2023-05-01T12:49:40.774Z,17.85
2023-05-01T12:51:50.338Z,15.00
2023-05-01T12:53:58.720Z,16.00
2023-05-01T12:56:03.786Z,14.07
2023-05-01T12:58:09.109Z,18.67
2023-05-01T13:00:15.880Z,14.80
2023-05-01T13:02:26.272Z,13.20
2023-05-01T13:04:32.613Z,19.52
2023-05-01T13:06:43.711Z,13.80
2023-05-01T13:08:49.535Z,15.30
2023-05-01T13:10:56.867Z,13.55
2023-05-01T13:13:02.365Z,13.85
2023-05-01T13:15:08.907Z,11.68
2023-05-01T13:17:15.365Z,15.57
2023-05-01T13:19:30.513Z,12.52
2023-05-01T13:21:35.628Z,12.98
2023-05-01T13:23:54.763Z,9.98
2023-05-01T13:26:00.536Z,12.48
2023-05-01T13:28:05.661Z,13.20
2023-05-01T13:30:13.236Z,13.00
2023-05-01T13:32:18.286Z,14.40
2023-05-01T13:34:29.759Z,12.80
2023-05-01T13:36:40.249Z,13.32
2023-05-01T13:38:51.242Z,11.18
2023-05-01T13:40:56.529Z,13.00
2023-05-01T13:43:01.934Z,11.82
2023-05-01T13:45:09.798Z,17.20
2023-05-01T13:47:19.731Z,14.98
2023-05-01T13:49:28.112Z,13.75
2023-05-01T13:51:36.980Z,12.68
2023-05-01T13:53:44.001Z,13.38
2023-05-01T13:55:51.329Z,11.25
2023-05-01T13:57:56.531Z,11.13
2023-05-01T14:00:02.274Z,14.05
2023-05-01T14:02:26.001Z,11.65
2023-05-01T14:04:31.471Z,13.23
2023-05-01T14:06:39.901Z,12.93
2023-05-01T14:08:46.611Z,12.35
2023-05-01T14:10:54.373Z,11.82
2023-05-01T14:13:00.835Z,11.13
2023-05-01T14:15:07.705Z,9.93
2023-05-01T14:17:13.605Z,10.45
2023-05-01T14:19:19.710Z,11.73
2023-05-01T14:21:27.822Z,8.70
2023-05-01T14:23:35.294Z,9.32
2023-05-01T14:25:40.454Z,12.15
2023-05-01T14:27:47.967Z,9.55
2023-05-01T14:29:53.022Z,12.50
2023-05-01T14:31:58.365Z,10.10
2023-05-01T14:34:05.188Z,10.32
2023-05-01T14:36:12.688Z,10.63
2023-05-01T14:38:19.757Z,10.75
2023-05-01T14:40:31.678Z,11.43
2023-05-01T14:42:40.777Z,11.20
2023-05-01T14:44:48.651Z,11.45
2023-05-01T14:46:53.949Z,12.50
2023-05-01T14:48:59.904Z,14.20
2023-05-01T14:51:07.676Z,15.82
2023-05-01T14:53:12.701Z,16.02
2023-05-01T14:55:20.498Z,11.80
2023-05-01T14:57:27.988Z,12.35
2023-05-01T14:59:34.164Z,15.70
2023-05-01T15:01:41.840Z,14.30
2023-05-01T15:03:47.051Z,14.20
2023-05-01T15:05:52.570Z,15.18
2023-05-01T15:08:00.734Z,15.32
2023-05-01T15:10:06.283Z,14.93
2023-05-01T15:12:11.392Z,15.00
2023-05-01T15:14:16.985Z,16.10
2023-05-01T15:16:22.677Z,17.27
2023-05-01T15:18:30.769Z,16.75
2023-05-01T15:20:36.590Z,15.02
2023-05-01T15:22:41.906Z,17.42
2023-05-01T15:24:47.143Z,15.93
2023-05-01T15:26:52.472Z,18.52
2023-05-01T15:28:58.288Z,19.08
2023-05-01T15:31:03.780Z,15.60
2023-05-01T15:33:08.868Z,16.80
2023-05-01T15:35:16.945Z,18.02
2023-05-01T15:37:28.215Z,15.82
2023-05-01T15:39:33.464Z,18.95
2023-05-01T15:41:38.858Z,18.48
2023-05-01T15:43:43.999Z,16.88
2023-05-01T15:45:48.887Z,17.55
2023-05-01T15:47:54.101Z,19.48
2023-05-01T15:49:59.323Z,18.88
2023-05-01T15:52:07.845Z,18.40
2023-05-01T15:54:12.939Z,20.23
2023-05-01T15:56:17.764Z,17.63
2023-05-01T15:58:26.588Z,17.60
2023-05-01T16:00:33.012Z,18.05
2023-05-01T16:02:38.152Z,16.48
2023-05-01T16:04:43.327Z,19.42
2023-05-01T16:06:48.483Z,19.13
2023-05-01T16:08:56.784Z,19.83
2023-05-01T16:11:01.906Z,20.50
2023-05-01T16:13:08.023Z,19.90
2023-05-01T16:15:14.989Z,17.75
2023-05-01T16:17:21.212Z,21.65
2023-05-01T16:19:26.691Z,21.88
2023-05-01T16:21:31.897Z,19.48
2023-05-01T16:23:40.212Z,20.50
2023-05-01T16:25:48.698Z,21.98
2023-05-01T16:27:53.729Z,21.08
2023-05-01T16:29:59.045Z,22.38
2023-05-01T16:32:08.560Z,21.13
2023-05-01T16:34:14.688Z,23.35
2023-05-01T16:36:20.466Z,25.00
2023-05-01T16:38:30.159Z,21.85
2023-05-01T16:40:35.191Z,23.83
2023-05-01T16:42:42.885Z,24.38
2023-05-01T16:44:47.991Z,26.55
2023-05-01T16:46:56.802Z,25.50
2023-05-01T16:49:02.130Z,24.85
2023-05-01T16:51:09.118Z,22.15
2023-05-01T16:53:14.182Z,22.70
2023-05-01T16:55:19.938Z,21.80
2023-05-01T16:57:27.722Z,23.20
2023-05-01T16:59:35.575Z,26.13
2023-05-01T17:01:43.559Z,25.88
2023-05-01T17:03:48.920Z,24.90
2023-05-01T17:05:54.285Z,24.95
2023-05-01T17:07:59.661Z,26.95
2023-05-01T17:10:04.845Z,25.25
2023-05-01T17:12:10.332Z,25.48
2023-05-01T17:14:15.264Z,27.15
2023-05-01T17:16:23.184Z,29.20
2023-05-01T17:18:31.323Z,27.35
2023-05-01T17:20:39.363Z,27.92
2023-05-01T17:22:45.181Z,28.20
2023-05-01T17:24:53.084Z,25.42
2023-05-01T17:26:58.540Z,27.40
2023-05-01T17:29:03.922Z,32.65
2023-05-01T17:31:09.138Z,28.75
2023-05-01T17:33:17.677Z,32.92
2023-05-01T17:35:23.292Z,31.08
2023-05-01T17:37:31.556Z,34.35
2023-05-01T17:39:38.837Z,28.55
2023-05-01T17:41:43.973Z,31.50
2023-05-01T17:43:48.973Z,29.60
2023-05-01T17:45:53.992Z,30.20
2023-05-01T17:47:59.055Z,29.75
2023-05-01T17:50:08.581Z,32.35
2023-05-01T17:52:13.567Z,28.10
2023-05-01T17:54:20.000Z,33.45
2023-05-01T17:56:26.161Z,32.28
2023-05-01T17:58:31.807Z,32.35
2023-05-01T18:00:37.055Z,27.80
2023-05-01T18:02:45.222Z,32.67
2023-05-01T18:04:51.295Z,32.80
2023-05-01T18:06:59.534Z,30.80
2023-05-01T18:09:04.638Z,29.48
2023-05-01T18:11:09.885Z,37.05
2023-05-01T18:13:16.051Z,36.22
2023-05-01T18:15:24.570Z,33.80
2023-05-01T18:17:29.663Z,31.77
2023-05-01T18:19:34.777Z,36.47
2023-05-01T18:21:40.158Z,37.70
2023-05-01T18:23:48.876Z,33.67
2023-05-01T18:25:54.223Z,35.28
2023-05-01T18:27:59.833Z,34.33
2023-05-01T18:30:04.944Z,36.63
2023-05-01T18:32:14.085Z,32.63
2023-05-01T18:34:19.635Z,36.75
2023-05-01T18:36:24.798Z,36.47
2023-05-01T18:38:38.470Z,35.90
2023-05-01T18:40:46.245Z,37.35
2023-05-01T18:42:51.455Z,36.83
2023-05-01T18:45:08.135Z,40.05
2023-05-01T18:47:13.157Z,42.45
2023-05-01T18:49:21.410Z,40.30
2023-05-01T18:51:26.877Z,43.17
2023-05-01T18:53:31.991Z,40.72
2023-05-01T18:55:38.535Z,44.25
2023-05-01T18:57:48.497Z,45.05
2023-05-01T18:59:53.536Z,41.65
2023-05-01T19:01:58.845Z,45.47
2023-05-01T19:04:04.468Z,43.15
2023-05-01T19:06:10.814Z,39.10
2023-05-01T19:08:16.064Z,40.13
2023-05-01T19:10:23.954Z,44.22
2023-05-01T19:12:30.066Z,42.28
2023-05-01T19:14:38.377Z,43.88
2023-05-01T19:16:43.705Z,44.72
2023-05-01T19:18:48.923Z,44.67
2023-05-01T19:20:56.692Z,46.25
2023-05-01T19:23:02.008Z,44.78
2023-05-01T19:25:08.464Z,43.33
2023-05-01T19:27:13.620Z,44.75
2023-05-01T19:29:18.904Z,42.00
2023-05-01T19:31:26.892Z,47.40
2023-05-01T19:33:32.049Z,42.97
2023-05-01T19:35:38.769Z,44.47
2023-05-01T19:37:43.771Z,47.17
2023-05-01T19:39:48.846Z,45.03
2023-05-01T19:41:54.288Z,47.70
2023-05-01T19:43:59.217Z,49.30
2023-05-01T19:46:04.312Z,50.92
2023-05-01T19:48:12.256Z,44.17
2023-05-01T19:50:21.149Z,47.30
2023-05-01T19:52:26.898Z,44.22
2023-05-01T19:54:32.438Z,45.42
2023-05-01T19:56:38.843Z,50.08
2023-05-01T19:58:44.158Z,48.33
2023-05-01T20:00:49.344Z,43.20
2023-05-01T20:02:58.694Z,47.83
2023-05-01T20:05:06.802Z,40.83
2023-05-01T20:07:11.897Z,44.17
2023-05-01T20:09:17.454Z,42.05
2023-05-01T20:11:22.647Z,38.97
2023-05-01T20:13:27.888Z,37.95
2023-05-01T20:15:33.206Z,41.92
2023-05-01T20:17:38.356Z,45.92
2023-05-01T20:19:43.470Z,36.58
2023-05-01T20:21:53.014Z,36.63
2023-05-01T20:23:58.791Z,34.50
2023-05-01T20:26:04.229Z,28.95
2023-05-01T20:28:13.249Z,28.55
2023-05-01T20:30:19.444Z,27.83
2023-05-01T20:32:27.856Z,30.17
2023-05-01T20:34:32.850Z,29.83
2023-05-01T20:36:40.416Z,30.83
2023-05-01T20:38:48.867Z,42.83
2023-05-01T20:40:54.007Z,44.03
2023-05-01T20:42:59.754Z,51.10
2023-05-01T20:45:05.059Z,48.70
2023-05-01T20:47:10.488Z,51.22
2023-05-01T20:49:16.362Z,43.42
2023-05-01T20:51:22.251Z,47.88
2023-05-01T20:53:27.130Z,42.28
2023-05-01T20:55:34.750Z,45.22
2023-05-01T20:57:40.478Z,41.90
2023-05-01T20:59:49.411Z,42.95
2023-05-01T21:01:57.666Z,43.15
2023-05-01T21:04:03.490Z,38.22
2023-05-01T21:06:09.077Z,41.45
2023-05-01T21:08:15.382Z,43.45
2023-05-01T21:10:20.650Z,46.17
2023-05-01T21:12:28.901Z,41.60
2023-05-01T21:14:34.228Z,41.40
2023-05-01T21:16:39.579Z,46.80
2023-05-01T21:18:45.159Z,39.10
2023-05-01T21:20:50.907Z,40.03
2023-05-01T21:22:55.922Z,41.58
2023-05-01T21:25:03.041Z,32.25
2023-05-01T21:27:10.229Z,39.20
2023-05-01T21:29:17.975Z,38.38
2023-05-01T21:31:23.131Z,35.88
2023-05-01T21:33:31.529Z,35.70
2023-05-01T21:35:39.735Z,35.53
2023-05-01T21:37:46.874Z,36.55
2023-05-01T21:39:52.129Z,34.72
2023-05-01T21:41:57.184Z,38.10
2023-05-01T21:44:02.336Z,32.47
2023-05-01T21:46:13.610Z,33.97
2023-05-01T21:48:19.209Z,32.53
2023-05-01T21:50:26.556Z,33.67
2023-05-01T21:52:32.464Z,38.42
2023-05-01T21:54:39.250Z,37.42
2023-05-01T21:56:44.384Z,39.17
2023-05-01T21:58:49.437Z,41.03
2023-05-01T22:00:57.650Z,36.55
2023-05-01T22:03:10.708Z,31.05
2023-05-01T22:07:27.888Z,36.33
2023-05-01T22:09:33.524Z,35.63
2023-05-01T22:11:38.551Z,35.33
2023-05-01T22:13:44.110Z,35.95
2023-05-01T22:15:49.786Z,35.28
2023-05-01T22:17:57.673Z,36.80
2023-05-01T22:20:07.712Z,37.33
2023-05-01T22:22:12.758Z,39.75
2023-05-01T22:24:17.678Z,38.35
2023-05-01T22:26:22.877Z,37.83
2023-05-01T22:28:28.030Z,35.72
2023-05-01T22:30:35.053Z,37.38
2023-05-01T22:32:42.962Z,38.17
2023-05-01T22:34:48.062Z,35.58
2023-05-01T22:36:55.936Z,34.10
2023-05-01T22:39:01.286Z,30.65
2023-05-01T22:41:06.400Z,36.65
2023-05-01T22:43:11.449Z,33.42
2023-05-01T22:45:16.576Z,35.15
2023-05-01T22:47:25.156Z,28.42
2023-05-01T22:49:32.235Z,30.42
2023-05-01T22:51:39.981Z,29.70
2023-05-01T22:53:47.752Z,36.10
2023-05-01T22:55:52.796Z,32.90
2023-05-01T22:57:57.847Z,33.47
2023-05-01T23:00:03.917Z,36.22
2023-05-01T23:02:09.112Z,39.58
2023-05-01T23:04:15.469Z,39.22
2023-05-01T23:06:22.252Z,32.28
2023-05-01T23:08:27.322Z,34.42
2023-05-01T23:10:34.889Z,35.75
2023-05-01T23:12:45.342Z,32.88
2023-05-01T23:14:53.353Z,30.60
2023-05-01T23:16:59.522Z,29.98
2023-05-01T23:19:04.744Z,35.67
2023-05-01T23:21:09.752Z,32.22
2023-05-01T23:23:17.429Z,36.15
2023-05-01T23:25:27.467Z,37.72
2023-05-01T23:27:40.348Z,30.85
2023-05-01T23:29:50.716Z,40.88
2023-05-01T23:31:57.288Z,39.95
2023-05-01T23:34:05.364Z,37.22
2023-05-01T23:36:13.551Z,38.08
2023-05-01T23:38:18.740Z,33.80
2023-05-01T23:40:23.796Z,34.47
2023-05-01T23:42:30.217Z,42.75
2023-05-01T23:44:40.121Z,31.85
2023-05-01T23:46:45.381Z,36.70
2023-05-01T23:48:52.269Z,40.22
2023-05-01T23:50:58.859Z,35.00
2023-05-01T23:53:08.715Z,34.08
2023-05-01T23:55:14.117Z,39.00
2023-05-01T23:57:19.223Z,37.65
2023-05-01T23:59:24.205Z,35.72
